sensor_id;sensor_type;location;lat;lon;timestamp;P1;durP1;ratioP1;P2;durP2;ratioP2
56307;SDS011;42217;50.422;7.210;2023-09-30T00:02:14;10.18;;;4.00;;
56307;SDS011;42217;50.422;7.210;2023-09-30T00:04:39;13.00;;;3.90;;
56307;SDS011;42217;50.422;7.210;2023-09-30T00:07:05;10.60;;;4.00;;
56307;SDS011;42217;50.422;7.210;2023-09-30T00:09:31;10.40;;;4.03;;
56307;SDS011;42217;50.422;7.210;2023-09-30T00:11:57;20.73;;;5.72;;
56307;SDS011;42217;50.422;7.210;2023-09-30T00:14:22;12.13;;;3.75;;
56307;SDS011;42217;50.422;7.210;2023-09-30T00:16:48;8.20;;;4.18;;
56307;SDS011;42217;50.422;7.210;2023-09-30T00:19:15;9.30;;;3.10;;
56307;SDS011;42217;50.422;7.210;2023-09-30T00:21:41;17.23;;;4.80;;
56307;SDS011;42217;50.422;7.210;2023-09-30T00:24:07;9.75;;;3.50;;
56307;SDS011;42217;50.422;7.210;2023-09-30T00:26:34;14.50;;;3.70;;
56307;SDS011;42217;50.422;7.210;2023-09-30T00:29:00;14.90;;;3.80;;
56307;SDS011;42217;50.422;7.210;2023-09-30T00:31:28;20.73;;;5.35;;
56307;SDS011;42217;50.422;7.210;2023-09-30T00:33:54;16.25;;;6.35;;
56307;SDS011;42217;50.422;7.210;2023-09-30T00:36:21;12.77;;;5.75;;
56307;SDS011;42217;50.422;7.210;2023-09-30T00:38:46;12.35;;;4.35;;
56307;SDS011;42217;50.422;7.210;2023-09-30T00:41:12;12.18;;;5.15;;
56307;SDS011;42217;50.422;7.210;2023-09-30T00:43:39;11.45;;;4.97;;
56307;SDS011;42217;50.422;7.210;2023-09-30T00:48:57;11.88;;;4.82;;
56307;SDS011;42217;50.422;7.210;2023-09-30T00:51:24;12.45;;;4.65;;
56307;SDS011;42217;50.422;7.210;2023-09-30T00:53:51;23.17;;;6.40;;
56307;SDS011;42217;50.422;7.210;2023-09-30T00:56:18;16.25;;;4.43;;
56307;SDS011;42217;50.422;7.210;2023-09-30T00:58:46;15.88;;;4.72;;
56307;SDS011;42217;50.422;7.210;2023-09-30T01:01:13;18.25;;;5.47;;
56307;SDS011;42217;50.422;7.210;2023-09-30T01:03:40;18.38;;;5.18;;
56307;SDS011;42217;50.422;7.210;2023-09-30T01:06:06;14.00;;;4.78;;
56307;SDS011;42217;50.422;7.210;2023-09-30T01:08:32;10.88;;;4.70;;
56307;SDS011;42217;50.422;7.210;2023-09-30T01:10:59;13.82;;;4.80;;
56307;SDS011;42217;50.422;7.210;2023-09-30T01:13:35;14.20;;;5.60;;
56307;SDS011;42217;50.422;7.210;2023-09-30T01:16:05;18.37;;;5.37;;
56307;SDS011;42217;50.422;7.210;2023-09-30T01:18:31;15.57;;;5.25;;
56307;SDS011;42217;50.422;7.210;2023-09-30T01:20:59;16.50;;;4.72;;
56307;SDS011;42217;50.422;7.210;2023-09-30T01:23:29;16.47;;;4.73;;
56307;SDS011;42217;50.422;7.210;2023-09-30T01:25:55;19.03;;;5.33;;
56307;SDS011;42217;50.422;7.210;2023-09-30T01:28:21;18.63;;;4.87;;
56307;SDS011;42217;50.422;7.210;2023-09-30T01:30:46;16.03;;;6.57;;
56307;SDS011;42217;50.422;7.210;2023-09-30T01:33:12;10.83;;;5.67;;
56307;SDS011;42217;50.422;7.210;2023-09-30T01:35:37;10.40;;;4.57;;
56307;SDS011;42217;50.422;7.210;2023-09-30T01:38:03;23.87;;;6.87;;
56307;SDS011;42217;50.422;7.210;2023-09-30T01:40:29;14.93;;;6.30;;
56307;SDS011;42217;50.422;7.210;2023-09-30T01:42:55;14.40;;;4.90;;
56307;SDS011;42217;50.422;7.210;2023-09-30T01:45:22;12.20;;;4.65;;
56307;SDS011;42217;50.422;7.210;2023-09-30T01:47:47;14.80;;;4.97;;
56307;SDS011;42217;50.422;7.210;2023-09-30T01:50:13;15.57;;;5.87;;
56307;SDS011;42217;50.422;7.210;2023-09-30T01:52:38;23.33;;;5.35;;
56307;SDS011;42217;50.422;7.210;2023-09-30T01:55:04;16.37;;;5.47;;
56307;SDS011;42217;50.422;7.210;2023-09-30T01:57:30;12.70;;;5.00;;
56307;SDS011;42217;50.422;7.210;2023-09-30T01:59:56;11.80;;;4.50;;
56307;SDS011;42217;50.422;7.210;2023-09-30T02:02:21;21.00;;;6.00;;
56307;SDS011;42217;50.422;7.210;2023-09-30T02:04:47;23.80;;;5.10;;
56307;SDS011;42217;50.422;7.210;2023-09-30T02:07:12;19.73;;;6.93;;
56307;SDS011;42217;50.422;7.210;2023-09-30T02:09:38;21.57;;;5.00;;
56307;SDS011;42217;50.422;7.210;2023-09-30T02:12:04;16.47;;;6.20;;
56307;SDS011;42217;50.422;7.210;2023-09-30T02:14:30;15.73;;;4.60;;
56307;SDS011;42217;50.422;7.210;2023-09-30T02:16:56;15.83;;;5.13;;
56307;SDS011;42217;50.422;7.210;2023-09-30T02:19:22;19.93;;;6.03;;
56307;SDS011;42217;50.422;7.210;2023-09-30T02:21:48;24.27;;;5.67;;
56307;SDS011;42217;50.422;7.210;2023-09-30T02:24:13;13.20;;;4.73;;
56307;SDS011;42217;50.422;7.210;2023-09-30T02:26:40;30.43;;;6.77;;
56307;SDS011;42217;50.422;7.210;2023-09-30T02:29:06;21.90;;;4.83;;
56307;SDS011;42217;50.422;7.210;2023-09-30T02:31:33;16.90;;;5.83;;
56307;SDS011;42217;50.422;7.210;2023-09-30T02:33:59;16.50;;;6.07;;
56307;SDS011;42217;50.422;7.210;2023-09-30T02:36:24;21.30;;;6.57;;
56307;SDS011;42217;50.422;7.210;2023-09-30T02:38:52;12.70;;;4.95;;
56307;SDS011;42217;50.422;7.210;2023-09-30T02:41:18;14.60;;;4.87;;
56307;SDS011;42217;50.422;7.210;2023-09-30T02:43:44;15.63;;;4.93;;
56307;SDS011;42217;50.422;7.210;2023-09-30T02:46:09;16.67;;;5.17;;
56307;SDS011;42217;50.422;7.210;2023-09-30T02:48:35;12.80;;;5.07;;
56307;SDS011;42217;50.422;7.210;2023-09-30T02:51:01;18.67;;;5.70;;
56307;SDS011;42217;50.422;7.210;2023-09-30T02:53:27;17.30;;;5.63;;
56307;SDS011;42217;50.422;7.210;2023-09-30T02:55:53;23.37;;;5.87;;
56307;SDS011;42217;50.422;7.210;2023-09-30T02:58:22;26.17;;;5.40;;
56307;SDS011;42217;50.422;7.210;2023-09-30T03:00:49;16.07;;;5.43;;
56307;SDS011;42217;50.422;7.210;2023-09-30T03:03:15;16.77;;;5.73;;
56307;SDS011;42217;50.422;7.210;2023-09-30T03:05:41;23.67;;;5.37;;
56307;SDS011;42217;50.422;7.210;2023-09-30T03:08:06;16.60;;;6.00;;
56307;SDS011;42217;50.422;7.210;2023-09-30T03:10:32;14.27;;;6.17;;
56307;SDS011;42217;50.422;7.210;2023-09-30T03:12:58;17.53;;;6.80;;
56307;SDS011;42217;50.422;7.210;2023-09-30T03:15:27;24.27;;;6.97;;
56307;SDS011;42217;50.422;7.210;2023-09-30T03:17:55;10.93;;;5.93;;
56307;SDS011;42217;50.422;7.210;2023-09-30T03:20:22;16.07;;;5.57;;
56307;SDS011;42217;50.422;7.210;2023-09-30T03:22:50;18.83;;;6.90;;
56307;SDS011;42217;50.422;7.210;2023-09-30T03:25:16;21.20;;;8.50;;
56307;SDS011;42217;50.422;7.210;2023-09-30T03:27:43;17.80;;;7.90;;
56307;SDS011;42217;50.422;7.210;2023-09-30T03:30:11;20.10;;;7.53;;
56307;SDS011;42217;50.422;7.210;2023-09-30T03:32:38;20.27;;;6.80;;
56307;SDS011;42217;50.422;7.210;2023-09-30T03:35:05;22.73;;;8.03;;
56307;SDS011;42217;50.422;7.210;2023-09-30T03:37:32;22.73;;;7.57;;
56307;SDS011;42217;50.422;7.210;2023-09-30T03:39:58;24.50;;;7.00;;
56307;SDS011;42217;50.422;7.210;2023-09-30T03:42:23;15.03;;;6.53;;
56307;SDS011;42217;50.422;7.210;2023-09-30T03:44:49;24.67;;;6.23;;
56307;SDS011;42217;50.422;7.210;2023-09-30T03:47:16;27.40;;;7.97;;
56307;SDS011;42217;50.422;7.210;2023-09-30T03:49:42;21.70;;;7.23;;
56307;SDS011;42217;50.422;7.210;2023-09-30T03:52:11;17.53;;;6.07;;
56307;SDS011;42217;50.422;7.210;2023-09-30T03:54:37;19.13;;;6.00;;
56307;SDS011;42217;50.422;7.210;2023-09-30T03:57:03;31.07;;;9.63;;
56307;SDS011;42217;50.422;7.210;2023-09-30T03:59:29;20.30;;;7.53;;
56307;SDS011;42217;50.422;7.210;2023-09-30T04:01:55;20.70;;;6.33;;
56307;SDS011;42217;50.422;7.210;2023-09-30T04:04:23;24.93;;;8.57;;
56307;SDS011;42217;50.422;7.210;2023-09-30T04:06:50;24.00;;;7.47;;
56307;SDS011;42217;50.422;7.210;2023-09-30T04:09:16;33.93;;;8.37;;
56307;SDS011;42217;50.422;7.210;2023-09-30T04:11:43;23.87;;;7.57;;
56307;SDS011;42217;50.422;7.210;2023-09-30T04:14:09;19.67;;;6.80;;
56307;SDS011;42217;50.422;7.210;2023-09-30T04:16:35;25.63;;;7.30;;
56307;SDS011;42217;50.422;7.210;2023-09-30T04:19:02;20.33;;;7.03;;
56307;SDS011;42217;50.422;7.210;2023-09-30T04:21:28;16.47;;;6.43;;
56307;SDS011;42217;50.422;7.210;2023-09-30T04:23:55;20.40;;;6.70;;
56307;SDS011;42217;50.422;7.210;2023-09-30T04:26:22;25.73;;;8.37;;
56307;SDS011;42217;50.422;7.210;2023-09-30T04:28:48;19.63;;;6.97;;
56307;SDS011;42217;50.422;7.210;2023-09-30T04:31:14;14.93;;;6.70;;
56307;SDS011;42217;50.422;7.210;2023-09-30T04:33:40;17.20;;;7.03;;
56307;SDS011;42217;50.422;7.210;2023-09-30T04:36:06;22.83;;;6.33;;
56307;SDS011;42217;50.422;7.210;2023-09-30T04:38:36;19.97;;;7.00;;
56307;SDS011;42217;50.422;7.210;2023-09-30T04:41:04;19.40;;;7.93;;
56307;SDS011;42217;50.422;7.210;2023-09-30T04:43:32;18.20;;;6.00;;
56307;SDS011;42217;50.422;7.210;2023-09-30T04:45:58;19.43;;;6.20;;
56307;SDS011;42217;50.422;7.210;2023-09-30T04:48:24;22.47;;;5.93;;
56307;SDS011;42217;50.422;7.210;2023-09-30T04:50:50;21.13;;;7.27;;
56307;SDS011;42217;50.422;7.210;2023-09-30T04:53:16;25.80;;;8.30;;
56307;SDS011;42217;50.422;7.210;2023-09-30T04:55:43;17.67;;;7.67;;
56307;SDS011;42217;50.422;7.210;2023-09-30T04:58:09;18.60;;;6.43;;
56307;SDS011;42217;50.422;7.210;2023-09-30T05:00:36;16.20;;;6.70;;
56307;SDS011;42217;50.422;7.210;2023-09-30T05:03:02;25.93;;;7.80;;
56307;SDS011;42217;50.422;7.210;2023-09-30T05:05:27;12.63;;;5.30;;
56307;SDS011;42217;50.422;7.210;2023-09-30T05:07:53;22.90;;;6.30;;
56307;SDS011;42217;50.422;7.210;2023-09-30T05:10:19;17.67;;;5.70;;
56307;SDS011;42217;50.422;7.210;2023-09-30T05:12:45;15.27;;;4.93;;
56307;SDS011;42217;50.422;7.210;2023-09-30T05:15:17;21.60;;;6.23;;
56307;SDS011;42217;50.422;7.210;2023-09-30T05:17:47;8.10;;;5.13;;
56307;SDS011;42217;50.422;7.210;2023-09-30T05:20:14;13.17;;;5.20;;
56307;SDS011;42217;50.422;7.210;2023-09-30T05:22:43;22.33;;;6.03;;
56307;SDS011;42217;50.422;7.210;2023-09-30T05:25:13;14.33;;;5.10;;
56307;SDS011;42217;50.422;7.210;2023-09-30T05:27:43;13.83;;;4.80;;
56307;SDS011;42217;50.422;7.210;2023-09-30T05:30:09;12.80;;;5.30;;
56307;SDS011;42217;50.422;7.210;2023-09-30T05:32:36;12.23;;;5.13;;
56307;SDS011;42217;50.422;7.210;2023-09-30T05:35:04;9.90;;;5.93;;
56307;SDS011;42217;50.422;7.210;2023-09-30T05:37:31;19.20;;;5.90;;
56307;SDS011;42217;50.422;7.210;2023-09-30T05:39:56;17.13;;;5.63;;
56307;SDS011;42217;50.422;7.210;2023-09-30T05:42:22;9.60;;;5.60;;
56307;SDS011;42217;50.422;7.210;2023-09-30T05:44:48;10.40;;;6.00;;
56307;SDS011;42217;50.422;7.210;2023-09-30T05:47:14;16.30;;;6.43;;
56307;SDS011;42217;50.422;7.210;2023-09-30T05:49:40;9.70;;;4.77;;
56307;SDS011;42217;50.422;7.210;2023-09-30T05:52:06;10.47;;;4.50;;
56307;SDS011;42217;50.422;7.210;2023-09-30T05:54:32;5.77;;;3.87;;
56307;SDS011;42217;50.422;7.210;2023-09-30T05:56:58;12.53;;;3.67;;
56307;SDS011;42217;50.422;7.210;2023-09-30T05:59:25;8.73;;;4.23;;
56307;SDS011;42217;50.422;7.210;2023-09-30T06:01:53;8.83;;;4.50;;
56307;SDS011;42217;50.422;7.210;2023-09-30T06:04:18;12.43;;;4.80;;
56307;SDS011;42217;50.422;7.210;2023-09-30T06:06:45;11.73;;;5.57;;
56307;SDS011;42217;50.422;7.210;2023-09-30T06:09:11;13.17;;;4.20;;
56307;SDS011;42217;50.422;7.210;2023-09-30T06:11:37;8.33;;;3.60;;
56307;SDS011;42217;50.422;7.210;2023-09-30T06:14:03;10.73;;;4.03;;
56307;SDS011;42217;50.422;7.210;2023-09-30T06:16:31;13.27;;;4.90;;
56307;SDS011;42217;50.422;7.210;2023-09-30T06:18:57;10.47;;;4.70;;
56307;SDS011;42217;50.422;7.210;2023-09-30T06:21:23;10.00;;;4.73;;
56307;SDS011;42217;50.422;7.210;2023-09-30T06:23:53;9.37;;;5.77;;
56307;SDS011;42217;50.422;7.210;2023-09-30T06:26:19;15.00;;;4.53;;
56307;SDS011;42217;50.422;7.210;2023-09-30T06:28:50;8.77;;;3.83;;
56307;SDS011;42217;50.422;7.210;2023-09-30T06:31:18;6.87;;;3.63;;
56307;SDS011;42217;50.422;7.210;2023-09-30T06:33:44;10.23;;;3.97;;
56307;SDS011;42217;50.422;7.210;2023-09-30T06:36:11;7.23;;;3.00;;
56307;SDS011;42217;50.422;7.210;2023-09-30T06:38:41;25.50;;;7.27;;
56307;SDS011;42217;50.422;7.210;2023-09-30T06:41:08;18.23;;;5.90;;
56307;SDS011;42217;50.422;7.210;2023-09-30T06:43:34;21.80;;;5.97;;
56307;SDS011;42217;50.422;7.210;2023-09-30T06:46:07;16.87;;;5.53;;
56307;SDS011;42217;50.422;7.210;2023-09-30T06:48:34;20.93;;;6.93;;
56307;SDS011;42217;50.422;7.210;2023-09-30T06:51:00;16.50;;;7.40;;
56307;SDS011;42217;50.422;7.210;2023-09-30T06:53:26;18.83;;;8.17;;
56307;SDS011;42217;50.422;7.210;2023-09-30T06:55:52;17.93;;;7.17;;
56307;SDS011;42217;50.422;7.210;2023-09-30T06:58:18;17.43;;;6.53;;
56307;SDS011;42217;50.422;7.210;2023-09-30T07:00:46;23.97;;;7.57;;
56307;SDS011;42217;50.422;7.210;2023-09-30T07:03:16;15.93;;;6.43;;
56307;SDS011;42217;50.422;7.210;2023-09-30T07:05:42;14.97;;;6.27;;
56307;SDS011;42217;50.422;7.210;2023-09-30T07:08:09;15.93;;;7.50;;
56307;SDS011;42217;50.422;7.210;2023-09-30T07:10:35;25.05;;;5.47;;
56307;SDS011;42217;50.422;7.210;2023-09-30T07:13:02;16.10;;;4.40;;
56307;SDS011;42217;50.422;7.210;2023-09-30T07:15:28;14.75;;;5.10;;
56307;SDS011;42217;50.422;7.210;2023-09-30T07:17:54;17.80;;;5.78;;
56307;SDS011;42217;50.422;7.210;2023-09-30T07:20:21;16.20;;;5.63;;
56307;SDS011;42217;50.422;7.210;2023-09-30T07:22:47;14.25;;;5.53;;
56307;SDS011;42217;50.422;7.210;2023-09-30T07:25:14;13.95;;;5.07;;
56307;SDS011;42217;50.422;7.210;2023-09-30T07:27:41;15.45;;;6.07;;
56307;SDS011;42217;50.422;7.210;2023-09-30T07:30:11;21.40;;;5.45;;
56307;SDS011;42217;50.422;7.210;2023-09-30T07:32:40;15.48;;;5.35;;
56307;SDS011;42217;50.422;7.210;2023-09-30T07:35:07;22.27;;;6.43;;
56307;SDS011;42217;50.422;7.210;2023-09-30T07:37:33;13.65;;;4.70;;
56307;SDS011;42217;50.422;7.210;2023-09-30T07:39:59;15.80;;;4.93;;
56307;SDS011;42217;50.422;7.210;2023-09-30T07:42:25;14.30;;;5.22;;
56307;SDS011;42217;50.422;7.210;2023-09-30T07:44:51;15.90;;;4.90;;
56307;SDS011;42217;50.422;7.210;2023-09-30T07:47:17;13.23;;;4.65;;
56307;SDS011;42217;50.422;7.210;2023-09-30T07:49:42;13.95;;;4.53;;
56307;SDS011;42217;50.422;7.210;2023-09-30T07:52:08;11.95;;;4.40;;
56307;SDS011;42217;50.422;7.210;2023-09-30T07:54:34;11.77;;;5.03;;
56307;SDS011;42217;50.422;7.210;2023-09-30T07:56:59;16.10;;;5.28;;
56307;SDS011;42217;50.422;7.210;2023-09-30T07:59:25;15.13;;;4.40;;
56307;SDS011;42217;50.422;7.210;2023-09-30T08:01:51;12.88;;;4.50;;
56307;SDS011;42217;50.422;7.210;2023-09-30T08:04:22;16.33;;;5.22;;
56307;SDS011;42217;50.422;7.210;2023-09-30T08:06:48;11.57;;;3.88;;
56307;SDS011;42217;50.422;7.210;2023-09-30T08:09:14;8.60;;;3.72;;
56307;SDS011;42217;50.422;7.210;2023-09-30T08:11:40;9.65;;;4.97;;
56307;SDS011;42217;50.422;7.210;2023-09-30T08:14:06;15.15;;;5.18;;
56307;SDS011;42217;50.422;7.210;2023-09-30T08:16:34;11.50;;;4.40;;
56307;SDS011;42217;50.422;7.210;2023-09-30T08:19:00;11.15;;;4.20;;
56307;SDS011;42217;50.422;7.210;2023-09-30T08:21:26;10.77;;;3.95;;
56307;SDS011;42217;50.422;7.210;2023-09-30T08:23:51;14.75;;;5.28;;
56307;SDS011;42217;50.422;7.210;2023-09-30T08:26:17;14.35;;;4.45;;
56307;SDS011;42217;50.422;7.210;2023-09-30T08:28:43;10.38;;;5.00;;
56307;SDS011;42217;50.422;7.210;2023-09-30T08:31:08;9.15;;;3.45;;
56307;SDS011;42217;50.422;7.210;2023-09-30T08:33:34;11.25;;;4.57;;
56307;SDS011;42217;50.422;7.210;2023-09-30T08:36:05;10.02;;;4.35;;
56307;SDS011;42217;50.422;7.210;2023-09-30T08:38:35;14.27;;;5.38;;
56307;SDS011;42217;50.422;7.210;2023-09-30T08:41:01;11.18;;;3.88;;
56307;SDS011;42217;50.422;7.210;2023-09-30T08:43:27;13.48;;;4.28;;
56307;SDS011;42217;50.422;7.210;2023-09-30T08:45:55;13.48;;;4.80;;
56307;SDS011;42217;50.422;7.210;2023-09-30T08:48:28;11.05;;;4.47;;
56307;SDS011;42217;50.422;7.210;2023-09-30T08:50:55;13.25;;;5.05;;
56307;SDS011;42217;50.422;7.210;2023-09-30T08:53:23;13.75;;;5.32;;
56307;SDS011;42217;50.422;7.210;2023-09-30T08:55:52;11.10;;;4.68;;
56307;SDS011;42217;50.422;7.210;2023-09-30T08:58:24;11.13;;;4.65;;
56307;SDS011;42217;50.422;7.210;2023-09-30T09:00:53;6.68;;;4.53;;
56307;SDS011;42217;50.422;7.210;2023-09-30T09:03:21;15.93;;;4.68;;
56307;SDS011;42217;50.422;7.210;2023-09-30T09:05:53;10.77;;;3.85;;
56307;SDS011;42217;50.422;7.210;2023-09-30T09:08:25;7.65;;;4.40;;
56307;SDS011;42217;50.422;7.210;2023-09-30T09:10:58;8.52;;;4.43;;
56307;SDS011;42217;50.422;7.210;2023-09-30T09:13:26;7.20;;;3.40;;
56307;SDS011;42217;50.422;7.210;2023-09-30T09:16:10;6.78;;;3.85;;
56307;SDS011;42217;50.422;7.210;2023-09-30T09:18:36;6.53;;;3.15;;
56307;SDS011;42217;50.422;7.210;2023-09-30T09:21:09;12.68;;;3.45;;
56307;SDS011;42217;50.422;7.210;2023-09-30T09:23:44;8.07;;;3.65;;
56307;SDS011;42217;50.422;7.210;2023-09-30T09:28:57;12.05;;;3.45;;
56307;SDS011;42217;50.422;7.210;2023-09-30T09:31:24;8.13;;;3.63;;
56307;SDS011;42217;50.422;7.210;2023-09-30T09:33:54;6.93;;;3.90;;
56307;SDS011;42217;50.422;7.210;2023-09-30T09:36:20;7.32;;;3.25;;
56307;SDS011;42217;50.422;7.210;2023-09-30T09:39:02;8.40;;;3.78;;
56307;SDS011;42217;50.422;7.210;2023-09-30T09:41:28;10.45;;;4.50;;
56307;SDS011;42217;50.422;7.210;2023-09-30T09:43:53;8.02;;;2.97;;
56307;SDS011;42217;50.422;7.210;2023-09-30T09:46:23;9.52;;;3.20;;
56307;SDS011;42217;50.422;7.210;2023-09-30T09:48:50;9.25;;;3.63;;
56307;SDS011;42217;50.422;7.210;2023-09-30T09:51:17;8.52;;;3.65;;
56307;SDS011;42217;50.422;7.210;2023-09-30T09:53:43;9.10;;;3.67;;
56307;SDS011;42217;50.422;7.210;2023-09-30T09:56:09;10.52;;;3.67;;
56307;SDS011;42217;50.422;7.210;2023-09-30T09:58:37;6.88;;;3.85;;
56307;SDS011;42217;50.422;7.210;2023-09-30T10:01:05;8.75;;;3.85;;
56307;SDS011;42217;50.422;7.210;2023-09-30T10:03:31;12.25;;;5.53;;
56307;SDS011;42217;50.422;7.210;2023-09-30T10:05:58;7.10;;;4.75;;
56307;SDS011;42217;50.422;7.210;2023-09-30T10:08:32;14.57;;;5.82;;
56307;SDS011;42217;50.422;7.210;2023-09-30T10:11:01;7.07;;;4.57;;
56307;SDS011;42217;50.422;7.210;2023-09-30T10:21:36;13.05;;;5.78;;
56307;SDS011;42217;50.422;7.210;2023-09-30T10:29:59;11.05;;;7.28;;
56307;SDS011;42217;50.422;7.210;2023-09-30T10:40:47;12.35;;;5.30;;
56307;SDS011;42217;50.422;7.210;2023-09-30T10:43:29;9.95;;;5.63;;
56307;SDS011;42217;50.422;7.210;2023-09-30T10:45:57;11.40;;;5.10;;
56307;SDS011;42217;50.422;7.210;2023-09-30T10:48:46;9.57;;;4.70;;
56307;SDS011;42217;50.422;7.210;2023-09-30T10:51:13;8.60;;;5.13;;
56307;SDS011;42217;50.422;7.210;2023-09-30T10:53:46;8.90;;;5.45;;
56307;SDS011;42217;50.422;7.210;2023-09-30T10:56:26;9.55;;;4.53;;
56307;SDS011;42217;50.422;7.210;2023-09-30T10:58:58;10.38;;;5.05;;
56307;SDS011;42217;50.422;7.210;2023-09-30T11:01:31;10.10;;;4.43;;
56307;SDS011;42217;50.422;7.210;2023-09-30T11:03:59;16.55;;;6.78;;
56307;SDS011;42217;50.422;7.210;2023-09-30T11:06:28;11.55;;;5.15;;
56307;SDS011;42217;50.422;7.210;2023-09-30T11:08:55;7.07;;;4.15;;
56307;SDS011;42217;50.422;7.210;2023-09-30T11:11:40;8.27;;;4.88;;
56307;SDS011;42217;50.422;7.210;2023-09-30T11:14:23;11.48;;;4.78;;
56307;SDS011;42217;50.422;7.210;2023-09-30T11:16:53;10.45;;;4.65;;
56307;SDS011;42217;50.422;7.210;2023-09-30T11:19:20;7.78;;;4.10;;
56307;SDS011;42217;50.422;7.210;2023-09-30T11:21:49;10.52;;;4.57;;
56307;SDS011;42217;50.422;7.210;2023-09-30T11:24:16;9.98;;;4.65;;
56307;SDS011;42217;50.422;7.210;2023-09-30T11:26:46;11.50;;;4.97;;
56307;SDS011;42217;50.422;7.210;2023-09-30T11:31:41;8.15;;;4.22;;
56307;SDS011;42217;50.422;7.210;2023-09-30T11:34:13;9.30;;;4.13;;
56307;SDS011;42217;50.422;7.210;2023-09-30T11:36:41;6.35;;;3.38;;
56307;SDS011;42217;50.422;7.210;2023-09-30T11:39:23;7.65;;;4.18;;
56307;SDS011;42217;50.422;7.210;2023-09-30T11:41:50;8.63;;;3.20;;
56307;SDS011;42217;50.422;7.210;2023-09-30T11:44:15;8.95;;;3.42;;
56307;SDS011;42217;50.422;7.210;2023-09-30T11:46:49;7.85;;;3.60;;
56307;SDS011;42217;50.422;7.210;2023-09-30T11:52:06;6.50;;;3.38;;
56307;SDS011;42217;50.422;7.210;2023-09-30T11:57:06;9.05;;;3.55;;
56307;SDS011;42217;50.422;7.210;2023-09-30T11:59:41;9.77;;;3.05;;
56307;SDS011;42217;50.422;7.210;2023-09-30T12:02:11;8.85;;;3.17;;
56307;SDS011;42217;50.422;7.210;2023-09-30T12:04:42;7.63;;;3.05;;
56307;SDS011;42217;50.422;7.210;2023-09-30T12:07:42;7.53;;;3.10;;
56307;SDS011;42217;50.422;7.210;2023-09-30T12:10:20;7.10;;;2.45;;
56307;SDS011;42217;50.422;7.210;2023-09-30T12:12:45;6.05;;;2.20;;
56307;SDS011;42217;50.422;7.210;2023-09-30T12:15:11;7.72;;;3.10;;
56307;SDS011;42217;50.422;7.210;2023-09-30T12:17:37;5.85;;;2.22;;
56307;SDS011;42217;50.422;7.210;2023-09-30T12:20:04;5.57;;;2.58;;
56307;SDS011;42217;50.422;7.210;2023-09-30T12:22:32;7.63;;;2.35;;
56307;SDS011;42217;50.422;7.210;2023-09-30T12:24:58;8.48;;;3.05;;
56307;SDS011;42217;50.422;7.210;2023-09-30T12:27:26;6.75;;;3.42;;
56307;SDS011;42217;50.422;7.210;2023-09-30T12:29:51;6.45;;;2.50;;
56307;SDS011;42217;50.422;7.210;2023-09-30T12:32:17;6.20;;;3.10;;
56307;SDS011;42217;50.422;7.210;2023-09-30T12:34:43;9.90;;;4.05;;
56307;SDS011;42217;50.422;7.210;2023-09-30T12:37:09;7.32;;;3.67;;
56307;SDS011;42217;50.422;7.210;2023-09-30T12:39:35;5.65;;;3.03;;
56307;SDS011;42217;50.422;7.210;2023-09-30T12:42:01;6.53;;;3.30;;
56307;SDS011;42217;50.422;7.210;2023-09-30T12:44:29;6.65;;;2.72;;
56307;SDS011;42217;50.422;7.210;2023-09-30T12:46:55;6.38;;;3.05;;
56307;SDS011;42217;50.422;7.210;2023-09-30T12:49:20;9.15;;;2.72;;
56307;SDS011;42217;50.422;7.210;2023-09-30T12:51:46;7.25;;;3.40;;
56307;SDS011;42217;50.422;7.210;2023-09-30T12:54:12;5.38;;;2.90;;
56307;SDS011;42217;50.422;7.210;2023-09-30T12:56:39;7.20;;;3.50;;
56307;SDS011;42217;50.422;7.210;2023-09-30T12:59:05;8.50;;;3.58;;
56307;SDS011;42217;50.422;7.210;2023-09-30T13:01:31;11.55;;;3.67;;
56307;SDS011;42217;50.422;7.210;2023-09-30T13:03:59;7.13;;;3.17;;
56307;SDS011;42217;50.422;7.210;2023-09-30T13:06:24;12.82;;;3.97;;
56307;SDS011;42217;50.422;7.210;2023-09-30T13:08:50;9.02;;;3.60;;
56307;SDS011;42217;50.422;7.210;2023-09-30T13:11:16;10.32;;;3.80;;
56307;SDS011;42217;50.422;7.210;2023-09-30T13:13:42;13.55;;;4.93;;
56307;SDS011;42217;50.422;7.210;2023-09-30T13:16:09;9.48;;;3.50;;
56307;SDS011;42217;50.422;7.210;2023-09-30T13:18:37;6.88;;;3.70;;
56307;SDS011;42217;50.422;7.210;2023-09-30T13:21:03;7.05;;;3.90;;
56307;SDS011;42217;50.422;7.210;2023-09-30T13:23:31;6.80;;;3.95;;
56307;SDS011;42217;50.422;7.210;2023-09-30T13:25:56;10.60;;;3.75;;
56307;SDS011;42217;50.422;7.210;2023-09-30T13:28:22;7.97;;;4.10;;
56307;SDS011;42217;50.422;7.210;2023-09-30T13:30:55;13.40;;;4.45;;
56307;SDS011;42217;50.422;7.210;2023-09-30T13:33:21;10.75;;;3.92;;
56307;SDS011;42217;50.422;7.210;2023-09-30T13:35:47;7.88;;;3.45;;
56307;SDS011;42217;50.422;7.210;2023-09-30T13:38:13;7.95;;;3.55;;
56307;SDS011;42217;50.422;7.210;2023-09-30T13:40:39;8.85;;;4.43;;
56307;SDS011;42217;50.422;7.210;2023-09-30T13:43:05;8.32;;;3.60;;
56307;SDS011;42217;50.422;7.210;2023-09-30T13:45:30;8.07;;;4.18;;
56307;SDS011;42217;50.422;7.210;2023-09-30T13:47:57;7.25;;;3.60;;
56307;SDS011;42217;50.422;7.210;2023-09-30T13:50:23;10.25;;;4.45;;
56307;SDS011;42217;50.422;7.210;2023-09-30T13:52:48;8.63;;;4.38;;
56307;SDS011;42217;50.422;7.210;2023-09-30T13:55:14;9.77;;;3.78;;
56307;SDS011;42217;50.422;7.210;2023-09-30T13:57:47;9.27;;;3.97;;
56307;SDS011;42217;50.422;7.210;2023-09-30T14:00:13;10.90;;;4.60;;
56307;SDS011;42217;50.422;7.210;2023-09-30T14:02:40;9.23;;;3.85;;
56307;SDS011;42217;50.422;7.210;2023-09-30T14:05:05;8.35;;;3.85;;
56307;SDS011;42217;50.422;7.210;2023-09-30T14:07:35;9.70;;;3.78;;
56307;SDS011;42217;50.422;7.210;2023-09-30T14:10:02;11.90;;;4.20;;
56307;SDS011;42217;50.422;7.210;2023-09-30T14:12:29;13.07;;;4.25;;
56307;SDS011;42217;50.422;7.210;2023-09-30T14:14:54;9.80;;;4.40;;
56307;SDS011;42217;50.422;7.210;2023-09-30T14:17:20;10.15;;;4.53;;
56307;SDS011;42217;50.422;7.210;2023-09-30T14:19:46;9.27;;;4.05;;
56307;SDS011;42217;50.422;7.210;2023-09-30T14:22:11;9.73;;;4.18;;
56307;SDS011;42217;50.422;7.210;2023-09-30T14:24:37;6.85;;;3.53;;
56307;SDS011;42217;50.422;7.210;2023-09-30T14:27:03;6.78;;;3.78;;
56307;SDS011;42217;50.422;7.210;2023-09-30T14:29:30;7.47;;;3.47;;
56307;SDS011;42217;50.422;7.210;2023-09-30T14:31:56;9.60;;;4.65;;
56307;SDS011;42217;50.422;7.210;2023-09-30T14:34:22;7.95;;;4.07;;
56307;SDS011;42217;50.422;7.210;2023-09-30T14:36:49;5.90;;;3.72;;
56307;SDS011;42217;50.422;7.210;2023-09-30T14:39:15;9.52;;;3.92;;
56307;SDS011;42217;50.422;7.210;2023-09-30T14:41:42;9.05;;;4.05;;
56307;SDS011;42217;50.422;7.210;2023-09-30T14:44:08;8.35;;;3.75;;
56307;SDS011;42217;50.422;7.210;2023-09-30T14:46:36;13.48;;;4.90;;
56307;SDS011;42217;50.422;7.210;2023-09-30T14:49:03;11.25;;;4.78;;
56307;SDS011;42217;50.422;7.210;2023-09-30T14:51:31;10.63;;;4.50;;
56307;SDS011;42217;50.422;7.210;2023-09-30T14:53:57;9.45;;;4.40;;
56307;SDS011;42217;50.422;7.210;2023-09-30T14:56:22;8.68;;;4.38;;
56307;SDS011;42217;50.422;7.210;2023-09-30T14:58:48;8.63;;;4.45;;
56307;SDS011;42217;50.422;7.210;2023-09-30T15:01:14;9.82;;;4.13;;
56307;SDS011;42217;50.422;7.210;2023-09-30T15:03:39;12.70;;;5.65;;
56307;SDS011;42217;50.422;7.210;2023-09-30T15:06:05;11.40;;;5.85;;
56307;SDS011;42217;50.422;7.210;2023-09-30T15:08:32;9.07;;;4.90;;
56307;SDS011;42217;50.422;7.210;2023-09-30T15:11:00;10.20;;;4.70;;
56307;SDS011;42217;50.422;7.210;2023-09-30T15:13:27;9.05;;;4.30;;
56307;SDS011;42217;50.422;7.210;2023-09-30T15:15:53;6.93;;;3.90;;